VBRA4: Lee Creek, Van Buren

Data processed at Wed May 22 2019 23:50


All information presented herein is the property of the government of the United States of America and may be revised or deleted at any time without prior notice.
Dissemination of this information without the expressed written consent of the Public Affairs Office, Tulsa District U.S. Army Corps of Engineers is strictly prohibited.
These data are gathered electronically and, as presented, have not undergone any form of quality control. These data are not guaranteed to be valid or correct.
Go to home page.
Go to station list.
Go to home page.

Upstream stations:

Downstream station:
Previous Day
Next Day
Current Day
    
SHEF ID:       VBRA4     Lee Creek at Lee Creek Reservoir
STATION TYPE:  
Regulating: Stage =    17.00, Flow =        0

               PRECIP     STAGE  RIV-FLOW  BAT-LOAD
                   in        ft       cfs      volt
              Ccp-Rev   Ccp-Rev   Ccp-Rev   Ccp-Rev
(US/Central)
05/22 00:00      0.00     20.53      1090     12.57
05/22 01:00      0.00     20.53      1090     12.57
05/22 02:00      0.00     20.54      1124     12.57
05/22 03:00      0.00     20.54      1124     12.57
05/22 04:00      0.00     20.55      1158     12.57
05/22 05:00      0.00     20.56      1193     12.57
05/22 06:00      0.00     20.58      1263     12.57
05/22 07:00      0.00     20.60      1334     12.57
05/22 08:00      0.00     20.62      1407     12.57
05/22 09:00      0.00     20.64      1482     12.57
05/22 10:00      0.00     20.65      1520     12.65
05/22 11:00      0.00     20.66      1558     12.81
05/22 12:00      0.00     20.66      1558     12.81
05/22 13:00      0.00     20.66      1558     12.89
05/22 14:00      0.00     20.66      1558     13.05
05/22 15:00      0.00     20.66      1558     13.13
05/22 16:00      0.00     20.66      1558     13.05
05/22 17:00      0.00     20.64      1482     13.13
05/22 18:00      0.00     20.63      1444     13.05
05/22 19:00      0.00     20.63      1444     12.89
05/22 20:00      0.00     20.62      1407     12.81
05/22 21:00      0.00     20.62      1407     12.73
05/22 22:00      0.00     20.61      1371     12.73
05/22 23:00      0.00     20.60      1334     12.73